createdAt,value
2018-12-07T00:00:10.261Z,97812.20
2018-12-07T00:02:38.513Z,97811.39
2018-12-07T00:05:07.001Z,97803.63
2018-12-07T00:07:35.253Z,97801.94
2018-12-07T00:10:05.106Z,97792.50
2018-12-07T00:12:33.907Z,97795.94
2018-12-07T00:15:02.177Z,97798.45
2018-12-07T00:17:30.528Z,97789.92
2018-12-07T00:19:58.791Z,97789.47
2018-12-07T00:22:27.089Z,97782.60
2018-12-07T00:24:55.341Z,97787.36
2018-12-07T00:27:23.617Z,97777.98
2018-12-07T00:29:51.872Z,97783.01
2018-12-07T00:32:20.125Z,97782.53
2018-12-07T00:34:48.393Z,97776.22
2018-12-07T00:37:16.654Z,97787.72
2018-12-07T00:39:44.917Z,97778.76
2018-12-07T00:42:13.211Z,97779.99
2018-12-07T00:44:41.483Z,97776.53
2018-12-07T00:47:09.750Z,97777.86
2018-12-07T00:49:38.039Z,97771.41
2018-12-07T00:52:06.409Z,97768.06
2018-12-07T00:54:34.796Z,97762.11
2018-12-07T00:57:03.061Z,97757.73
2018-12-07T00:59:31.348Z,97753.91
2018-12-07T01:01:59.601Z,97749.14
2018-12-07T01:04:27.904Z,97738.90
2018-12-07T01:06:56.173Z,97738.90
2018-12-07T01:09:24.658Z,97740.59
2018-12-07T01:11:52.935Z,97729.91
2018-12-07T01:14:21.181Z,97728.56
2018-12-07T01:16:49.446Z,97727.72
2018-12-07T01:19:17.753Z,97728.09
2018-12-07T01:21:46.022Z,97723.00
2018-12-07T01:24:14.260Z,97720.82
2018-12-07T01:26:42.525Z,97714.82
2018-12-07T01:29:10.776Z,97721.23
2018-12-07T01:31:39.037Z,97708.06
2018-12-07T01:34:07.313Z,97707.22
2018-12-07T01:36:35.714Z,97700.34
2018-12-07T01:39:06.464Z,97703.78
2018-12-07T01:41:34.825Z,97706.70
2018-12-07T01:44:03.135Z,97698.16
2018-12-07T01:46:31.469Z,97701.04
2018-12-07T01:48:59.745Z,97703.60
2018-12-07T01:51:28.028Z,97697.63
2018-12-07T01:53:56.290Z,97698.48
2018-12-07T01:56:24.578Z,97698.48
2018-12-07T01:58:53.016Z,97700.60
2018-12-07T02:01:21.445Z,97706.07
2018-12-07T02:03:49.708Z,97705.29
2018-12-07T02:06:17.977Z,97702.73
2018-12-07T02:08:46.225Z,97703.20
2018-12-07T02:11:14.637Z,97690.91
2018-12-07T02:13:42.890Z,97689.63
2018-12-07T02:16:11.152Z,97682.41
2018-12-07T02:18:39.508Z,97680.72
2018-12-07T02:21:07.846Z,97679.88
2018-12-07T02:23:36.125Z,97674.72
2018-12-07T02:26:04.500Z,97669.97
2018-12-07T02:28:32.748Z,97674.63
2018-12-07T02:31:01.077Z,97674.66
2018-12-07T02:33:29.333Z,97672.06
2018-12-07T02:35:57.585Z,97659.19
2018-12-07T02:38:25.853Z,97662.19
2018-12-07T02:40:54.287Z,97656.69
2018-12-07T02:43:22.537Z,97660.19
2018-12-07T02:45:50.824Z,97652.87
2018-12-07T02:48:19.227Z,97652.87
2018-12-07T02:50:47.682Z,97652.47
2018-12-07T02:53:15.951Z,97656.75
2018-12-07T02:55:44.234Z,97658.91
2018-12-07T02:58:12.485Z,97654.59
2018-12-07T03:00:40.785Z,97652.91
2018-12-07T03:03:09.169Z,97650.31
2018-12-07T03:05:37.436Z,97640.47
2018-12-07T03:08:05.692Z,97649.00
2018-12-07T03:10:34.052Z,97641.72
2018-12-07T03:13:02.304Z,97637.84
2018-12-07T03:15:30.646Z,97630.59
2018-12-07T03:17:58.904Z,97629.78
2018-12-07T03:20:27.155Z,97624.98
2018-12-07T03:22:55.421Z,97623.67
2018-12-07T03:25:23.669Z,97618.11
2018-12-07T03:27:51.930Z,97615.55
2018-12-07T03:30:20.211Z,97610.02
2018-12-07T03:32:48.562Z,97609.98
2018-12-07T03:35:16.833Z,97601.48
2018-12-07T03:37:45.141Z,97593.39
2018-12-07T03:40:13.413Z,97590.86
2018-12-07T03:42:41.688Z,97586.25
2018-12-07T03:45:09.975Z,97588.77
2018-12-07T03:47:38.232Z,97584.23
2018-12-07T03:50:06.896Z,97577.79
2018-12-07T03:52:35.141Z,97582.14
2018-12-07T03:55:03.422Z,97580.83
2018-12-07T03:57:31.779Z,97580.02
2018-12-07T04:00:00.156Z,97573.58
2018-12-07T04:02:28.573Z,97570.64
2018-12-07T04:04:56.825Z,97568.05
2018-12-07T04:07:25.089Z,97568.92
2018-12-07T04:09:53.345Z,97565.11
2018-12-07T04:12:21.629Z,97558.67
2018-12-07T04:14:50.006Z,97563.36
2018-12-07T04:17:18.399Z,97563.36
2018-12-07T04:19:46.738Z,97557.84
2018-12-07T04:22:14.993Z,97555.64
2018-12-07T04:24:43.249Z,97554.36
2018-12-07T04:27:11.593Z,97550.11
2018-12-07T04:29:39.871Z,97549.67
2018-12-07T04:32:08.130Z,97547.98
2018-12-07T04:34:36.526Z,97536.60
2018-12-07T04:37:04.829Z,97539.20
2018-12-07T04:39:33.177Z,97530.67
2018-12-07T04:42:01.459Z,97528.14
2018-12-07T04:44:29.735Z,97522.55
2018-12-07T04:46:58.015Z,97527.74
2018-12-07T04:49:26.293Z,97523.46
2018-12-07T04:51:54.578Z,97519.62
2018-12-07T04:54:22.942Z,97522.62
2018-12-07T04:56:51.188Z,97515.30
2018-12-07T04:59:19.494Z,97509.78
2018-12-07T05:01:47.771Z,97503.74
2018-12-07T05:04:16.034Z,97502.50
2018-12-07T05:06:44.292Z,97495.25
2018-12-07T05:09:12.599Z,97485.88
2018-12-07T05:11:40.873Z,97493.53
2018-12-07T05:14:09.154Z,97483.77
2018-12-07T05:16:37.397Z,97483.28
2018-12-07T05:19:05.707Z,97488.92
2018-12-07T05:21:33.969Z,97485.05
2018-12-07T05:24:02.266Z,97491.84
2018-12-07T05:26:30.534Z,97492.76
2018-12-07T05:28:58.913Z,97485.44
2018-12-07T05:31:27.289Z,97493.67
2018-12-07T05:33:55.571Z,97487.23
2018-12-07T05:36:24.062Z,97485.88
2018-12-07T05:38:52.417Z,97492.25
2018-12-07T05:41:20.667Z,97491.81
2018-12-07T05:43:58.043Z,97485.73
2018-12-07T05:46:26.470Z,97483.53
2018-12-07T05:48:55.058Z,97482.22
2018-12-07T05:51:23.333Z,97481.34
2018-12-07T05:53:51.606Z,97479.98
2018-12-07T05:56:19.916Z,97474.45
2018-12-07T05:58:48.181Z,97471.05
2018-12-07T06:01:16.446Z,97472.33
2018-12-07T06:03:44.721Z,97468.92
2018-12-07T06:06:13.325Z,97469.41
2018-12-07T06:08:41.597Z,97470.69
2018-12-07T06:11:09.852Z,97461.32
2018-12-07T06:13:38.139Z,97461.72
2018-12-07T06:16:06.393Z,97469.45
2018-12-07T06:18:34.661Z,97467.32
2018-12-07T06:21:03.083Z,97460.44
2018-12-07T06:23:31.448Z,97458.39
2018-12-07T06:25:59.729Z,97458.80
2018-12-07T06:28:28.097Z,97445.55
2018-12-07T06:30:56.357Z,97450.63
2018-12-07T06:33:24.666Z,97442.51
2018-12-07T06:35:52.916Z,97442.95
2018-12-07T06:38:21.190Z,97443.47
2018-12-07T06:40:49.485Z,97447.31
2018-12-07T06:43:17.757Z,97444.38
2018-12-07T06:45:46.036Z,97451.62
2018-12-07T06:48:14.310Z,97447.39
2018-12-07T06:50:42.690Z,97443.14
2018-12-07T06:53:10.937Z,97444.53
2018-12-07T06:55:39.217Z,97445.05
2018-12-07T06:58:07.520Z,97439.02
2018-12-07T07:00:35.857Z,97433.89
2018-12-07T07:03:04.189Z,97431.81
2018-12-07T07:05:32.454Z,97427.13
2018-12-07T07:08:00.697Z,97432.33
2018-12-07T07:10:29.105Z,97422.92
2018-12-07T07:12:58.403Z,97415.23
2018-12-07T07:15:26.658Z,97414.48
2018-12-07T07:17:54.965Z,97419.13
2018-12-07T07:20:23.213Z,97425.13
2018-12-07T07:22:51.570Z,97417.52
2018-12-07T07:25:19.862Z,97415.75
2018-12-07T07:27:48.105Z,97406.88
2018-12-07T07:30:16.441Z,97403.88
2018-12-07T07:32:44.689Z,97408.95
2018-12-07T07:35:12.998Z,97405.59
2018-12-07T07:37:41.265Z,97406.00
2018-12-07T07:40:09.514Z,97402.59
2018-12-07T07:42:37.835Z,97400.43
2018-12-07T07:45:07.148Z,97396.55
2018-12-07T07:47:35.462Z,97395.75
2018-12-07T07:50:05.708Z,97391.44
2018-12-07T07:52:33.961Z,97390.12
2018-12-07T07:55:02.210Z,97391.44
2018-12-07T07:57:30.490Z,97386.68
2018-12-07T07:59:58.939Z,97381.19
2018-12-07T08:02:27.230Z,97377.83
2018-12-07T08:04:55.597Z,97374.43
2018-12-07T08:07:23.866Z,97368.06
2018-12-07T08:09:52.149Z,97365.59
2018-12-07T08:12:20.423Z,97362.66
2018-12-07T08:14:48.673Z,97359.22
2018-12-07T08:17:16.976Z,97351.51
2018-12-07T08:19:45.222Z,97355.75
2018-12-07T08:22:13.482Z,97355.30
2018-12-07T08:24:41.741Z,97343.27
2018-12-07T08:27:10.082Z,97348.42
2018-12-07T08:29:38.333Z,97355.70
2018-12-07T08:32:06.602Z,97350.52
2018-12-07T08:34:34.865Z,97341.11
2018-12-07T08:37:03.117Z,97341.98
2018-12-07T08:39:31.391Z,97336.44
2018-12-07T08:42:06.543Z,97333.03
2018-12-07T08:44:29.923Z,97334.75
2018-12-07T08:46:58.242Z,97321.50
2018-12-07T08:49:31.933Z,97314.70
2018-12-07T08:52:00.176Z,97313.39
2018-12-07T08:54:28.507Z,97209.88
2018-12-07T08:56:56.813Z,97312.91
2018-12-07T08:59:25.080Z,97302.31
2018-12-07T09:01:53.324Z,97306.94
2018-12-07T09:04:21.638Z,97301.39
2018-12-07T09:06:49.982Z,97297.10
2018-12-07T09:09:18.246Z,97301.39
2018-12-07T09:11:46.538Z,97297.55
2018-12-07T09:14:14.793Z,97297.31
2018-12-07T09:16:43.064Z,97296.91
2018-12-07T09:19:11.365Z,97296.83
2018-12-07T09:21:39.784Z,97294.67
2018-12-07T09:24:08.045Z,97284.88
2018-12-07T09:26:36.305Z,97286.51
2018-12-07T09:29:04.661Z,97281.23
2018-12-07T09:31:32.948Z,97283.31
2018-12-07T09:34:01.197Z,97286.28
2018-12-07T09:36:29.520Z,97286.36
2018-12-07T09:38:57.780Z,97285.40
2018-12-07T09:41:26.058Z,97282.98
2018-12-07T09:43:54.355Z,97280.86
2018-12-07T09:46:22.708Z,97278.03
2018-12-07T09:48:51.033Z,97274.55
2018-12-07T09:51:19.294Z,97267.78
2018-12-07T09:53:47.556Z,97262.27
2018-12-07T09:56:15.802Z,97260.11
2018-12-07T09:58:44.121Z,97256.83
2018-12-07T10:01:12.365Z,97251.44
2018-12-07T10:03:40.706Z,97252.28
2018-12-07T10:06:09.030Z,97245.57
2018-12-07T10:08:37.282Z,97243.45
2018-12-07T10:11:05.533Z,97231.50
2018-12-07T10:13:33.909Z,97227.27
2018-12-07T10:16:02.197Z,97196.36
2018-12-07T10:18:30.537Z,97211.47
2018-12-07T10:20:58.788Z,97208.55
2018-12-07T10:23:27.085Z,97200.44
2018-12-07T10:25:55.353Z,97193.68
2018-12-07T10:28:23.632Z,97189.36
2018-12-07T10:30:51.876Z,97188.09
2018-12-07T10:33:20.123Z,97186.37
2018-12-07T10:35:48.450Z,97184.20
2018-12-07T10:38:18.878Z,97181.69
2018-12-07T10:40:47.312Z,97171.81
2018-12-07T10:43:15.588Z,97164.34
2018-12-07T10:45:43.906Z,97157.42
2018-12-07T10:48:12.174Z,97143.35
2018-12-07T10:50:40.425Z,97136.91
2018-12-07T10:53:08.677Z,97134.70
2018-12-07T10:55:36.925Z,97132.14
2018-12-07T10:58:05.178Z,97123.76
2018-12-07T11:00:38.909Z,97124.11
2018-12-07T11:03:12.653Z,97116.39
2018-12-07T11:08:37.913Z,97095.42
2018-12-07T11:14:19.246Z,97081.84
2018-12-07T11:16:52.804Z,97078.98
2018-12-07T11:19:26.608Z,97081.50
2018-12-07T11:25:09.752Z,97068.41
2018-12-07T11:27:43.588Z,97067.13
2018-12-07T11:30:17.637Z,97049.57
2018-12-07T11:35:56.558Z,97038.16
2018-12-07T11:38:24.817Z,97033.34
2018-12-07T11:40:53.089Z,97023.53
2018-12-07T11:43:21.350Z,97034.17
2018-12-07T11:45:49.596Z,97024.38
2018-12-07T11:48:17.841Z,97026.88
2018-12-07T11:50:46.098Z,97018.71
2018-12-07T11:53:14.353Z,97007.55
2018-12-07T11:55:42.630Z,96999.81
2018-12-07T11:58:11.021Z,96984.36
2018-12-07T12:00:39.293Z,96980.91
2018-12-07T12:03:07.566Z,96969.77
2018-12-07T12:05:35.824Z,96957.81
2018-12-07T12:08:04.121Z,96949.30
2018-12-07T12:10:32.390Z,96939.50
2018-12-07T12:13:00.675Z,96935.18
2018-12-07T12:15:28.934Z,96931.28
2018-12-07T12:17:57.201Z,96928.27
2018-12-07T12:20:25.575Z,96917.58
2018-12-07T12:22:53.866Z,96918.80
2018-12-07T12:25:22.116Z,96922.22
2018-12-07T12:27:50.384Z,96909.46
2018-12-07T12:30:18.669Z,96905.58
2018-12-07T12:32:46.906Z,96906.41
2018-12-07T12:35:15.182Z,96888.08
2018-12-07T12:37:43.438Z,96889.82
2018-12-07T12:40:11.761Z,96880.31
2018-12-07T12:42:40.093Z,96882.97
2018-12-07T12:45:08.392Z,96874.00
2018-12-07T12:47:36.668Z,96866.72
2018-12-07T12:52:58.412Z,96860.77
2018-12-07T12:55:26.652Z,96851.38
2018-12-07T12:57:54.916Z,96852.25
2018-12-07T13:00:23.165Z,96839.14
2018-12-07T13:02:51.421Z,96840.55
2018-12-07T13:05:19.753Z,96837.53
2018-12-07T13:07:48.108Z,96824.22
2018-12-07T13:10:16.474Z,96812.51
2018-12-07T13:12:44.715Z,96799.27
2018-12-07T13:15:12.977Z,96788.51
2018-12-07T13:17:41.216Z,96782.94
2018-12-07T13:20:09.643Z,96770.97
2018-12-07T13:22:37.900Z,96771.20
2018-12-07T13:25:06.732Z,96766.92
2018-12-07T13:27:35.056Z,96755.54
2018-12-07T13:30:03.878Z,96758.42
2018-12-07T13:32:32.136Z,96743.52
2018-12-07T13:35:00.432Z,96740.59
2018-12-07T13:37:28.672Z,96724.73
2018-12-07T13:39:57.045Z,96718.95
2018-12-07T13:42:25.703Z,96704.88
2018-12-07T13:44:54.239Z,96701.04
2018-12-07T13:47:22.693Z,96704.37
2018-12-07T13:52:41.546Z,96691.98
2018-12-07T13:55:09.919Z,96684.69
2018-12-07T13:57:38.522Z,96676.25
2018-12-07T14:00:08.602Z,96678.87
2018-12-07T14:02:36.917Z,96675.02
2018-12-07T14:05:05.428Z,96663.53
2018-12-07T14:07:33.793Z,96661.80
2018-12-07T14:10:02.257Z,96656.34
2018-12-07T14:12:30.607Z,96646.13
2018-12-07T14:15:00.711Z,96647.72
2018-12-07T14:17:29.137Z,96649.97
2018-12-07T14:19:57.682Z,96639.66
2018-12-07T14:22:26.183Z,96635.44
2018-12-07T14:24:54.602Z,96630.77
2018-12-07T14:27:23.113Z,96629.88
2018-12-07T14:29:51.656Z,96613.31
2018-12-07T14:32:20.362Z,96614.61
2018-12-07T14:34:49.546Z,96609.89
2018-12-07T14:37:18.325Z,96608.22
2018-12-07T14:39:46.988Z,96598.50
2018-12-07T14:42:15.834Z,96598.11
2018-12-07T14:44:44.560Z,96583.20
2018-12-07T14:47:13.260Z,96591.14
2018-12-07T14:49:41.967Z,96586.03
2018-12-07T14:52:10.739Z,96588.14
2018-12-07T14:54:39.605Z,96582.27
2018-12-07T14:57:08.152Z,96581.73
2018-12-07T14:59:36.750Z,96574.01
2018-12-07T15:04:47.884Z,96549.45
2018-12-07T15:07:16.215Z,96547.28
2018-12-07T15:09:44.690Z,96541.27
2018-12-07T15:12:13.111Z,96549.39
2018-12-07T15:14:41.468Z,96551.51
2018-12-07T15:17:09.784Z,96552.71
2018-12-07T15:19:38.218Z,96557.14
2018-12-07T15:22:06.511Z,96542.23
2018-12-07T15:24:35.102Z,96543.52
2018-12-07T15:27:03.800Z,96536.44
2018-12-07T15:29:32.394Z,96526.70
2018-12-07T15:32:01.044Z,96505.20
2018-12-07T15:34:29.462Z,96505.32
2018-12-07T15:36:57.814Z,96491.34
2018-12-07T15:39:26.240Z,96493.55
2018-12-07T15:41:54.801Z,96492.34
2018-12-07T15:44:23.475Z,96488.46
2018-12-07T15:46:51.913Z,96468.84
2018-12-07T15:49:20.563Z,96478.31
2018-12-07T15:51:49.183Z,96480.84
2018-12-07T15:54:17.826Z,96480.86
2018-12-07T15:56:46.168Z,96485.13
2018-12-07T15:59:14.597Z,96488.83
2018-12-07T16:01:43.118Z,96480.34
2018-12-07T16:04:11.560Z,96480.86
2018-12-07T16:06:40.189Z,96474.02
2018-12-07T16:09:08.729Z,96457.86
2018-12-07T16:11:37.056Z,96436.45
2018-12-07T16:14:06.445Z,96428.78
2018-12-07T16:16:34.742Z,96426.15
2018-12-07T16:19:03.083Z,96418.56
2018-12-07T16:21:31.709Z,96423.49
2018-12-07T16:24:00.329Z,96421.04
2018-12-07T16:26:28.761Z,96416.23
2018-12-07T16:28:57.021Z,96417.05
2018-12-07T16:31:25.304Z,96415.95
2018-12-07T16:33:54.589Z,96415.40
2018-12-07T16:36:23.092Z,96415.31
2018-12-07T16:38:51.558Z,96411.06
2018-12-07T16:41:20.222Z,96405.56
2018-12-07T16:43:52.093Z,96405.09
2018-12-07T16:46:20.424Z,96411.81
2018-12-07T16:48:48.892Z,96422.55
2018-12-07T16:51:17.415Z,96412.27
2018-12-07T16:53:45.805Z,96395.20
2018-12-07T16:56:14.076Z,96396.84
2018-12-07T16:58:42.375Z,96392.11
2018-12-07T17:01:10.916Z,96387.74
2018-12-07T17:03:39.295Z,96383.38
2018-12-07T17:06:07.714Z,96387.65
2018-12-07T17:08:35.989Z,96395.55
2018-12-07T17:11:04.403Z,96375.84
2018-12-07T17:13:32.859Z,96362.80
2018-12-07T17:16:01.447Z,96358.81
2018-12-07T17:18:30.078Z,96347.70
2018-12-07T17:20:58.486Z,96349.24
2018-12-07T17:23:26.816Z,96346.84
2018-12-07T17:25:55.166Z,96353.23
2018-12-07T17:28:23.720Z,96349.77
2018-12-07T17:30:52.046Z,96348.93
2018-12-07T17:33:20.357Z,96347.13
2018-12-07T17:35:48.601Z,96346.69
2018-12-07T17:38:16.930Z,96339.70
2018-12-07T17:40:45.700Z,96334.64
2018-12-07T17:43:14.157Z,96338.47
2018-12-07T17:45:42.609Z,96329.98
2018-12-07T17:48:11.252Z,96331.25
2018-12-07T17:50:39.701Z,96322.52
2018-12-07T17:53:08.210Z,96319.16
2018-12-07T17:55:36.549Z,96317.56
2018-12-07T17:58:05.593Z,96312.41
2018-12-07T18:00:34.111Z,96309.95
2018-12-07T18:03:02.377Z,96281.07
2018-12-07T18:05:30.642Z,96296.19
2018-12-07T18:07:58.985Z,96290.64
2018-12-07T18:10:27.408Z,96271.07
2018-12-07T18:12:55.796Z,96258.69
2018-12-07T18:15:24.272Z,96280.20
2018-12-07T18:17:52.677Z,96274.69
2018-12-07T18:20:21.037Z,96266.22
2018-12-07T18:22:49.526Z,96266.61
2018-12-07T18:25:18.000Z,96264.11
2018-12-07T18:27:46.249Z,96257.41
2018-12-07T18:30:14.853Z,96252.65
2018-12-07T18:32:43.772Z,96234.13
2018-12-07T18:35:12.142Z,96226.49
2018-12-07T18:37:40.578Z,96216.27
2018-12-07T18:40:09.211Z,96224.23
2018-12-07T18:42:37.724Z,96222.13
2018-12-07T18:45:06.858Z,96216.21
2018-12-07T18:47:35.185Z,96219.52
2018-12-07T18:50:05.680Z,96216.13
2018-12-07T18:52:34.319Z,96214.88
2018-12-07T18:55:02.895Z,96214.98
2018-12-07T18:57:31.268Z,96213.29
2018-12-07T18:59:59.976Z,96206.47
2018-12-07T19:02:28.535Z,96200.61
2018-12-07T19:04:56.992Z,96205.29
2018-12-07T19:07:25.421Z,96203.55
2018-12-07T19:09:53.933Z,96204.02
2018-12-07T19:12:22.270Z,96200.97
2018-12-07T19:14:50.624Z,96209.53
2018-12-07T19:17:19.100Z,96184.30
2018-12-07T19:19:47.620Z,96209.91
2018-12-07T19:22:16.118Z,96206.52
2018-12-07T19:24:44.874Z,96208.23
2018-12-07T19:27:13.664Z,96218.39
2018-12-07T19:29:42.402Z,96214.13
2018-12-07T19:32:11.052Z,96222.70
2018-12-07T19:34:39.679Z,96234.61
2018-12-07T19:37:08.325Z,96237.24
2018-12-07T19:39:37.079Z,96247.45
2018-12-07T19:42:06.190Z,96262.08
2018-12-07T19:44:35.339Z,96278.48
2018-12-07T19:47:04.782Z,96272.84
2018-12-07T19:49:34.005Z,96272.20
2018-12-07T19:52:02.999Z,96282.34
2018-12-07T19:54:31.588Z,96287.84
2018-12-07T19:57:00.087Z,96295.10
2018-12-07T19:59:28.830Z,96313.42
2018-12-07T20:01:57.910Z,96295.75
2018-12-07T20:04:27.047Z,96293.19
2018-12-07T20:06:55.765Z,96289.06
2018-12-07T20:09:24.925Z,96301.03
2018-12-07T20:11:54.244Z,96302.71
2018-12-07T20:14:23.533Z,96298.23
2018-12-07T20:16:52.922Z,96308.16
2018-12-07T20:19:22.166Z,96327.78
2018-12-07T20:21:51.281Z,96334.72
2018-12-07T20:24:20.261Z,96343.54
2018-12-07T20:26:49.368Z,96361.22
2018-12-07T20:29:18.456Z,96395.17
2018-12-07T20:31:47.714Z,96414.44
2018-12-07T20:34:17.023Z,96464.16
2018-12-07T20:36:46.261Z,96480.73
2018-12-07T20:39:15.964Z,96522.56
2018-12-07T20:41:45.589Z,96554.14
2018-12-07T20:44:15.129Z,96550.58
2018-12-07T20:46:44.440Z,96548.06
2018-12-07T20:49:13.873Z,96547.61
2018-12-07T20:51:43.054Z,96547.56
2018-12-07T20:54:12.393Z,96567.91
2018-12-07T20:56:41.887Z,96590.00
2018-12-07T20:59:11.210Z,96595.87
2018-12-07T21:01:40.620Z,96601.41
2018-12-07T21:04:31.344Z,96602.75
2018-12-07T21:07:29.277Z,96599.85
2018-12-07T21:19:51.831Z,96637.67
2018-12-07T21:22:21.170Z,96624.61
2018-12-07T21:24:51.983Z,96643.66
2018-12-07T21:27:21.230Z,96635.16
2018-12-07T21:30:13.277Z,96630.52
2018-12-07T21:32:42.609Z,96641.42
2018-12-07T21:35:11.771Z,96644.40
2018-12-07T21:37:40.689Z,96640.59
2018-12-07T21:40:13.316Z,96643.98
2018-12-07T21:42:42.009Z,96640.20
2018-12-07T21:45:11.000Z,96644.40
2018-12-07T21:51:22.014Z,96655.03
2018-12-07T21:53:51.028Z,96658.36
2018-12-07T21:56:19.825Z,96647.87
2018-12-07T21:58:48.462Z,96676.58
2018-12-07T22:01:16.923Z,96689.28
2018-12-07T22:03:45.640Z,96693.50
2018-12-07T22:06:14.171Z,96703.63
2018-12-07T22:08:42.491Z,96703.99
2018-12-07T22:11:10.894Z,96716.78
2018-12-07T22:13:39.262Z,96728.19
2018-12-07T22:16:08.525Z,96740.03
2018-12-07T22:18:36.827Z,96742.23
2018-12-07T22:21:05.231Z,96754.48
2018-12-07T22:23:33.857Z,96768.89
2018-12-07T22:26:02.224Z,96761.30
2018-12-07T22:28:30.609Z,96774.44
2018-12-07T22:30:59.373Z,96776.16
2018-12-07T22:33:27.698Z,96770.72
2018-12-07T22:35:56.190Z,96788.50
2018-12-07T22:38:24.837Z,96771.15
2018-12-07T22:40:53.693Z,96769.02
2018-12-07T22:43:22.069Z,96783.02
2018-12-07T22:45:50.751Z,96789.38
2018-12-07T22:48:19.328Z,96804.20
2018-12-07T22:50:47.762Z,96791.56
2018-12-07T22:53:16.040Z,96786.48
2018-12-07T22:55:44.305Z,96778.44
2018-12-07T22:58:12.562Z,96776.33
2018-12-07T23:03:25.477Z,96778.03
2018-12-07T23:05:53.749Z,96775.08
2018-12-07T23:08:22.651Z,96774.67
2018-12-07T23:10:50.913Z,96783.99
2018-12-07T23:13:19.204Z,96799.23
2018-12-07T23:15:47.467Z,96803.47
2018-12-07T23:18:15.711Z,96806.84
2018-12-07T23:20:44.001Z,96826.31
2018-12-07T23:23:12.252Z,96847.45
2018-12-07T23:25:40.522Z,96846.60
2018-12-07T23:28:08.799Z,96847.88
2018-12-07T23:30:37.713Z,96850.83
2018-12-07T23:33:06.281Z,96855.05
2018-12-07T23:35:34.562Z,96852.95
2018-12-07T23:38:02.824Z,96851.23
2018-12-07T23:40:31.085Z,96853.79
2018-12-07T23:43:01.121Z,96851.66
2018-12-07T23:45:29.463Z,96844.91
2018-12-07T23:47:57.808Z,96837.73
2018-12-07T23:50:26.071Z,96827.59
2018-12-07T23:52:54.344Z,96829.72
2018-12-07T23:55:22.616Z,96834.80
2018-12-07T23:57:50.870Z,96825.06
